createdAt,value
2023-05-02T00:01:31.582Z,11.32
2023-05-02T00:03:58.132Z,11.28
2023-05-02T00:06:24.867Z,11.38
2023-05-02T00:08:51.432Z,11.40
2023-05-02T00:11:17.871Z,11.36
2023-05-02T00:13:44.722Z,11.35
2023-05-02T00:16:11.344Z,11.31
2023-05-02T00:18:37.835Z,11.28
2023-05-02T00:21:04.326Z,11.13
2023-05-02T00:23:31.941Z,11.09
2023-05-02T00:25:58.423Z,11.03
2023-05-02T00:28:26.467Z,11.04
2023-05-02T00:30:53.508Z,10.94
2023-05-02T00:33:19.966Z,10.92
2023-05-02T00:35:46.429Z,10.90
2023-05-02T00:38:12.959Z,10.83
2023-05-02T00:40:47.755Z,10.77
2023-05-02T00:43:15.358Z,10.77
2023-05-02T00:45:43.588Z,10.70
2023-05-02T00:48:10.836Z,10.64
2023-05-02T00:50:38.759Z,10.54
2023-05-02T00:53:05.588Z,10.50
2023-05-02T00:55:36.085Z,10.50
2023-05-02T00:58:06.810Z,10.48
2023-05-02T01:00:59.936Z,10.55
2023-05-02T01:04:00.388Z,10.55
2023-05-02T01:06:42.261Z,10.69
2023-05-02T01:09:30.368Z,10.65
2023-05-02T01:12:05.569Z,10.47
2023-05-02T01:14:55.182Z,10.32
2023-05-02T01:17:24.897Z,10.25
2023-05-02T01:19:55.274Z,10.25
2023-05-02T01:22:24.615Z,10.25
2023-05-02T01:25:14.007Z,10.31
2023-05-02T01:27:47.057Z,10.19
2023-05-02T01:30:16.396Z,10.16
2023-05-02T01:32:46.613Z,10.00
2023-05-02T01:35:18.215Z,9.95
2023-05-02T01:37:47.174Z,9.77
2023-05-02T01:40:18.649Z,9.68
2023-05-02T01:42:50.156Z,9.79
2023-05-02T01:45:18.618Z,9.70
2023-05-02T01:47:46.729Z,9.46
2023-05-02T01:50:17.352Z,9.45
2023-05-02T01:52:47.414Z,9.36
2023-05-02T01:55:16.179Z,9.28
2023-05-02T01:57:45.792Z,9.20
2023-05-02T02:00:13.798Z,9.26
2023-05-02T02:02:42.478Z,9.40
2023-05-02T02:05:10.616Z,9.58
2023-05-02T02:07:40.642Z,9.74
2023-05-02T02:10:11.187Z,9.77
2023-05-02T02:12:52.219Z,9.84
2023-05-02T02:15:25.713Z,9.88
2023-05-02T02:17:57.265Z,9.96
2023-05-02T02:20:23.766Z,9.94
2023-05-02T02:22:51.443Z,10.01
2023-05-02T02:25:19.884Z,10.01
2023-05-02T02:27:47.601Z,10.07
2023-05-02T02:30:14.170Z,10.03
2023-05-02T02:32:40.675Z,10.10
2023-05-02T02:35:10.413Z,10.01
2023-05-02T02:37:56.648Z,10.05
2023-05-02T02:40:29.356Z,10.19
2023-05-02T02:43:09.200Z,10.09
2023-05-02T02:45:43.393Z,10.15
2023-05-02T02:48:27.938Z,10.19
2023-05-02T02:51:40.639Z,10.36
2023-05-02T02:54:29.398Z,10.31
2023-05-02T02:57:07.651Z,10.37
2023-05-02T02:59:40.741Z,10.34
2023-05-02T03:02:12.511Z,10.27
2023-05-02T03:04:44.998Z,10.40
2023-05-02T03:07:14.979Z,10.43
2023-05-02T03:09:48.472Z,10.48
2023-05-02T03:12:15.080Z,10.42
2023-05-02T03:14:42.461Z,10.52
2023-05-02T03:17:11.764Z,10.58
2023-05-02T03:19:38.491Z,10.63
2023-05-02T03:22:05.900Z,10.57
2023-05-02T03:24:32.453Z,10.49
2023-05-02T03:26:59.575Z,10.45
2023-05-02T03:29:26.839Z,10.36
2023-05-02T03:31:53.353Z,10.34
2023-05-02T03:34:21.940Z,10.33
2023-05-02T03:36:48.540Z,10.35
2023-05-02T03:39:15.428Z,10.31
2023-05-02T03:41:46.558Z,10.23
2023-05-02T03:44:15.834Z,10.09
2023-05-02T03:46:45.445Z,9.97
2023-05-02T03:49:15.205Z,10.13
2023-05-02T03:51:44.652Z,9.95
2023-05-02T03:54:13.578Z,9.77
2023-05-02T03:56:42.661Z,9.71
2023-05-02T03:59:09.307Z,9.79
2023-05-02T04:01:35.816Z,9.83
2023-05-02T04:04:02.539Z,9.82
2023-05-02T04:06:29.287Z,9.39
2023-05-02T04:08:55.750Z,9.43
2023-05-02T04:11:22.287Z,9.33
2023-05-02T04:13:48.831Z,9.25
2023-05-02T04:16:15.874Z,9.16
2023-05-02T04:18:44.469Z,9.28
2023-05-02T04:21:11.012Z,9.34
2023-05-02T04:23:37.754Z,9.33
2023-05-02T04:26:04.208Z,9.38
2023-05-02T04:28:30.688Z,9.31
2023-05-02T04:30:57.726Z,9.41
2023-05-02T04:33:24.593Z,9.36
2023-05-02T04:35:51.168Z,9.38
2023-05-02T04:38:17.742Z,9.42
2023-05-02T04:40:46.295Z,9.56
2023-05-02T04:43:12.726Z,9.66
2023-05-02T04:45:39.191Z,9.73
2023-05-02T04:48:05.901Z,9.82
2023-05-02T04:50:32.882Z,9.99
2023-05-02T04:52:59.537Z,10.07
2023-05-02T04:55:26.134Z,10.05
2023-05-02T04:57:52.677Z,10.06
2023-05-02T05:00:19.260Z,10.15
2023-05-02T05:02:49.344Z,10.10
2023-05-02T05:05:16.499Z,10.17
2023-05-02T05:07:43.497Z,10.21
2023-05-02T05:10:11.471Z,10.29
2023-05-02T05:12:38.187Z,10.36
2023-05-02T05:15:05.115Z,10.45
2023-05-02T05:17:31.622Z,10.44
2023-05-02T05:19:58.219Z,10.35
2023-05-02T05:22:24.775Z,10.52
2023-05-02T05:24:55.238Z,10.63
2023-05-02T05:27:22.056Z,10.68
2023-05-02T05:29:48.621Z,10.75
2023-05-02T05:32:18.293Z,10.86
2023-05-02T05:34:51.824Z,10.94
2023-05-02T05:37:18.784Z,11.05
2023-05-02T05:39:48.288Z,11.10
2023-05-02T05:42:18.672Z,11.16
2023-05-02T05:44:49.593Z,11.02
2023-05-02T05:47:22.050Z,10.93
2023-05-02T05:49:53.154Z,10.97
2023-05-02T05:52:19.672Z,11.00
2023-05-02T05:54:51.386Z,11.10
2023-05-02T05:57:18.066Z,11.08
2023-05-02T05:59:48.811Z,11.25
2023-05-02T06:02:19.832Z,11.31
2023-05-02T06:04:47.565Z,11.23
2023-05-02T06:07:15.880Z,11.36
2023-05-02T06:09:42.616Z,11.42
2023-05-02T06:12:09.411Z,11.49
2023-05-02T06:14:36.227Z,11.47
2023-05-02T06:17:02.941Z,11.58
2023-05-02T06:19:29.773Z,11.67
2023-05-02T06:21:56.512Z,11.71
2023-05-02T06:24:23.206Z,11.79
2023-05-02T06:26:51.613Z,11.92
2023-05-02T06:29:18.070Z,12.04
2023-05-02T06:31:46.160Z,12.16
2023-05-02T06:34:12.734Z,12.24
2023-05-02T06:36:39.181Z,12.39
2023-05-02T06:39:05.734Z,12.47
2023-05-02T06:41:32.162Z,12.64
2023-05-02T06:43:58.811Z,12.78
2023-05-02T06:46:29.313Z,13.04
2023-05-02T06:48:55.731Z,13.29
2023-05-02T06:51:22.521Z,13.37
2023-05-02T06:53:49.181Z,13.59
2023-05-02T06:56:18.964Z,13.82
2023-05-02T06:58:48.932Z,14.07
2023-05-02T07:01:18.483Z,14.32
2023-05-02T07:03:47.378Z,14.52
2023-05-02T07:06:16.916Z,14.37
2023-05-02T07:08:46.115Z,14.46
2023-05-02T07:11:12.728Z,14.63
2023-05-02T07:13:39.162Z,14.80
2023-05-02T07:16:06.251Z,14.78
2023-05-02T07:18:32.758Z,14.75
2023-05-02T07:20:59.349Z,14.85
2023-05-02T07:23:25.915Z,15.11
2023-05-02T07:25:52.392Z,15.53
2023-05-02T07:28:18.902Z,15.95
2023-05-02T07:30:46.748Z,15.98
2023-05-02T07:33:18.950Z,15.98
2023-05-02T07:35:48.576Z,16.05
2023-05-02T07:38:17.856Z,16.19
2023-05-02T07:40:46.462Z,16.17
2023-05-02T07:43:15.402Z,16.20
2023-05-02T07:45:42.234Z,16.41
2023-05-02T07:48:08.798Z,16.60
2023-05-02T07:50:35.540Z,16.67
2023-05-02T07:53:02.025Z,16.82
2023-05-02T07:55:28.675Z,16.89
2023-05-02T07:57:55.139Z,17.02
2023-05-02T08:00:21.746Z,17.04
2023-05-02T08:02:48.351Z,17.20
2023-05-02T08:05:18.509Z,17.38
2023-05-02T08:07:48.270Z,17.53
2023-05-02T08:10:18.289Z,17.55
2023-05-02T08:12:46.352Z,17.57
2023-05-02T08:15:14.638Z,17.75
2023-05-02T08:17:41.725Z,17.82
2023-05-02T08:20:08.565Z,17.90
2023-05-02T08:22:35.057Z,18.27
2023-05-02T08:25:01.557Z,18.50
2023-05-02T08:27:28.049Z,18.84
2023-05-02T08:29:54.537Z,19.11
2023-05-02T08:32:22.349Z,19.12
2023-05-02T08:34:48.884Z,19.18
2023-05-02T08:37:18.480Z,19.18
2023-05-02T08:39:47.970Z,19.40
2023-05-02T08:42:16.283Z,19.45
2023-05-02T08:44:42.785Z,19.00
2023-05-02T08:47:15.826Z,18.06
2023-05-02T08:49:42.484Z,17.42
2023-05-02T08:52:12.222Z,16.57
2023-05-02T08:54:39.188Z,16.93
2023-05-02T08:57:05.949Z,16.68
2023-05-02T08:59:32.548Z,16.37
2023-05-02T09:02:17.865Z,16.45
2023-05-02T09:04:53.342Z,17.49
2023-05-02T09:07:19.876Z,17.73
2023-05-02T09:09:49.294Z,17.72
2023-05-02T09:12:26.409Z,17.91
2023-05-02T09:15:11.592Z,19.14
2023-05-02T09:17:47.318Z,20.45
2023-05-02T09:20:18.958Z,21.20
2023-05-02T09:22:50.679Z,20.73
2023-05-02T09:25:17.767Z,19.89
2023-05-02T09:27:55.220Z,20.07
2023-05-02T09:30:23.056Z,20.94
2023-05-02T09:32:55.904Z,21.57
2023-05-02T09:35:26.020Z,22.45
2023-05-02T09:37:59.272Z,22.71
2023-05-02T09:40:27.539Z,22.23
2023-05-02T09:42:54.044Z,21.47
2023-05-02T09:45:29.584Z,20.26
2023-05-02T09:48:02.614Z,19.39
2023-05-02T09:50:36.471Z,18.99
2023-05-02T09:53:11.228Z,19.07
2023-05-02T09:55:37.885Z,19.59
2023-05-02T09:58:04.506Z,21.00
2023-05-02T10:00:40.504Z,22.07
2023-05-02T10:03:08.533Z,22.39
2023-05-02T10:05:40.285Z,22.84
2023-05-02T10:08:07.861Z,23.55
2023-05-02T10:10:37.004Z,23.10
2023-05-02T10:13:05.214Z,22.03
2023-05-02T10:15:33.815Z,20.94
2023-05-02T10:18:08.923Z,20.20
2023-05-02T10:20:37.734Z,20.08
2023-05-02T10:23:06.094Z,20.45
2023-05-02T10:25:33.326Z,21.86
2023-05-02T10:28:00.489Z,21.74
2023-05-02T10:30:27.185Z,21.05
2023-05-02T10:32:56.858Z,22.19
2023-05-02T10:35:26.632Z,23.52
2023-05-02T10:37:53.772Z,24.53
2023-05-02T10:40:20.317Z,23.12
2023-05-02T10:42:51.129Z,22.78
2023-05-02T10:45:31.886Z,21.97
2023-05-02T10:48:22.225Z,20.79
2023-05-02T10:50:52.290Z,21.42
2023-05-02T10:53:22.629Z,21.64
2023-05-02T10:56:21.772Z,22.78
2023-05-02T10:58:50.262Z,23.63
2023-05-02T11:01:29.325Z,24.70
2023-05-02T11:04:01.069Z,25.41
2023-05-02T11:06:29.130Z,24.93
2023-05-02T11:09:24.760Z,24.68
2023-05-02T11:11:54.918Z,25.20
2023-05-02T11:14:30.837Z,25.59
2023-05-02T11:17:06.174Z,25.75
2023-05-02T11:19:38.238Z,26.06
2023-05-02T11:22:24.386Z,26.33
2023-05-02T11:24:51.261Z,26.62
2023-05-02T11:27:29.980Z,27.41
2023-05-02T11:29:58.145Z,26.51
2023-05-02T11:32:50.159Z,24.78
2023-05-02T11:35:23.800Z,24.34
2023-05-02T11:37:54.350Z,25.25
2023-05-02T11:40:20.939Z,25.91
2023-05-02T11:42:47.656Z,26.18
2023-05-02T11:45:17.100Z,26.01
2023-05-02T11:47:44.620Z,25.97
2023-05-02T11:50:12.512Z,26.47
2023-05-02T11:52:40.777Z,26.69
2023-05-02T11:55:11.735Z,27.24
2023-05-02T11:57:39.469Z,27.32
2023-05-02T12:00:06.872Z,27.47
2023-05-02T12:02:43.512Z,26.97
2023-05-02T12:05:16.689Z,25.76
2023-05-02T12:07:49.338Z,24.32
2023-05-02T12:10:16.575Z,23.28
2023-05-02T12:12:45.983Z,23.97
2023-05-02T12:15:12.913Z,24.45
2023-05-02T12:17:42.709Z,24.77
2023-05-02T12:20:10.870Z,25.74
2023-05-02T12:22:38.070Z,26.66
2023-05-02T12:25:08.699Z,27.29
2023-05-02T12:27:35.738Z,26.65
2023-05-02T12:30:02.415Z,25.66
2023-05-02T12:32:34.791Z,25.76
2023-05-02T12:35:03.789Z,24.71
2023-05-02T12:37:30.370Z,23.95
2023-05-02T12:39:56.838Z,25.27
2023-05-02T12:42:25.311Z,25.55
2023-05-02T12:44:53.076Z,24.83
2023-05-02T12:47:21.397Z,23.99
2023-05-02T12:49:56.432Z,24.53
2023-05-02T12:52:49.769Z,25.65
2023-05-02T12:55:21.178Z,26.42
2023-05-02T12:57:48.325Z,27.31
2023-05-02T13:00:20.102Z,27.82
2023-05-02T13:02:49.685Z,27.07
2023-05-02T13:05:19.987Z,27.31
2023-05-02T13:07:49.711Z,26.95
2023-05-02T13:10:19.293Z,26.27
2023-05-02T13:12:48.088Z,25.28
2023-05-02T13:15:16.777Z,24.52
2023-05-02T13:17:43.654Z,24.74
2023-05-02T13:20:10.787Z,25.52
2023-05-02T13:22:37.730Z,26.04
2023-05-02T13:25:05.432Z,25.33
2023-05-02T13:27:34.047Z,24.62
2023-05-02T13:30:07.512Z,24.68
2023-05-02T13:32:35.661Z,24.97
2023-05-02T13:35:04.170Z,25.58
2023-05-02T13:37:30.662Z,26.25
2023-05-02T13:39:57.319Z,26.35
2023-05-02T13:42:23.825Z,26.51
2023-05-02T13:44:50.508Z,26.16
2023-05-02T13:47:18.715Z,26.58
2023-05-02T13:49:45.148Z,25.89
2023-05-02T13:52:11.679Z,25.64
2023-05-02T13:54:38.258Z,26.14
2023-05-02T13:57:05.574Z,26.73
2023-05-02T13:59:32.346Z,27.02
2023-05-02T14:01:59.017Z,27.16
2023-05-02T14:04:25.713Z,27.18
2023-05-02T14:06:52.436Z,27.23
2023-05-02T14:09:22.189Z,27.48
2023-05-02T14:11:51.960Z,27.49
2023-05-02T14:14:21.638Z,27.31
2023-05-02T14:16:51.420Z,26.77
2023-05-02T14:19:20.835Z,26.98
2023-05-02T14:21:54.826Z,25.97
2023-05-02T14:24:21.362Z,25.44
2023-05-02T14:26:49.659Z,25.83
2023-05-02T14:29:16.318Z,26.37
2023-05-02T14:31:42.932Z,26.32
2023-05-02T14:34:09.441Z,26.58
2023-05-02T14:36:35.933Z,26.35
2023-05-02T14:39:02.390Z,25.72
2023-05-02T14:41:28.844Z,25.06
2023-05-02T14:43:55.299Z,24.16
2023-05-02T14:46:21.918Z,23.64
2023-05-02T14:48:51.179Z,22.97
2023-05-02T14:51:20.444Z,23.30
2023-05-02T14:53:51.297Z,23.82
2023-05-02T14:56:20.488Z,24.30
2023-05-02T14:58:49.073Z,24.73
2023-05-02T15:01:23.068Z,25.53
2023-05-02T15:04:05.832Z,26.20
2023-05-02T15:06:34.114Z,26.56
2023-05-02T15:09:01.672Z,26.09
2023-05-02T15:11:28.166Z,24.76
2023-05-02T15:13:56.554Z,24.07
2023-05-02T15:16:24.964Z,23.09
2023-05-02T15:18:51.479Z,22.73
2023-05-02T15:21:21.983Z,22.16
2023-05-02T15:23:51.541Z,21.92
2023-05-02T15:26:21.537Z,21.84
2023-05-02T15:28:51.359Z,22.22
2023-05-02T15:31:21.553Z,22.83
2023-05-02T15:33:51.442Z,23.84
2023-05-02T15:36:20.731Z,24.45
2023-05-02T15:38:49.681Z,24.23
2023-05-02T15:41:16.505Z,23.39
2023-05-02T15:43:43.558Z,22.71
2023-05-02T15:46:11.170Z,22.33
2023-05-02T15:48:37.676Z,21.76
2023-05-02T15:51:05.408Z,21.59
2023-05-02T15:53:32.164Z,21.03
2023-05-02T15:55:58.655Z,20.73
2023-05-02T15:58:25.128Z,20.98
2023-05-02T16:00:52.595Z,21.31
2023-05-02T16:03:19.912Z,21.75
2023-05-02T16:05:48.718Z,21.71
2023-05-02T16:08:15.187Z,21.40
2023-05-02T16:10:43.504Z,21.13
2023-05-02T16:13:10.270Z,20.61
2023-05-02T16:15:37.828Z,20.57
2023-05-02T16:18:04.419Z,20.68
2023-05-02T16:20:33.870Z,21.09
2023-05-02T16:23:00.566Z,21.61
2023-05-02T16:25:27.075Z,21.90
2023-05-02T16:27:53.508Z,22.05
2023-05-02T16:30:20.023Z,21.66
2023-05-02T16:32:46.948Z,21.34
2023-05-02T16:35:14.121Z,21.24
2023-05-02T16:37:41.370Z,21.43
2023-05-02T16:40:08.938Z,21.31
2023-05-02T16:42:35.699Z,21.08
2023-05-02T16:45:02.321Z,20.53
2023-05-02T16:47:28.883Z,20.12
2023-05-02T16:49:56.757Z,19.84
2023-05-02T16:52:23.824Z,19.59
2023-05-02T16:54:50.494Z,19.78
2023-05-02T16:57:21.274Z,20.37
2023-05-02T16:59:52.535Z,20.80
2023-05-02T17:02:22.145Z,21.19
2023-05-02T17:04:52.265Z,21.64
2023-05-02T17:07:21.708Z,21.66
2023-05-02T17:09:50.917Z,21.72
2023-05-02T17:12:22.710Z,21.64
2023-05-02T17:14:52.320Z,21.48
2023-05-02T17:17:23.518Z,20.91
2023-05-02T17:19:50.693Z,20.41
2023-05-02T17:22:21.326Z,19.86
2023-05-02T17:24:53.988Z,19.63
2023-05-02T17:27:20.554Z,19.37
2023-05-02T17:29:49.370Z,19.13
2023-05-02T17:32:16.005Z,18.97
2023-05-02T17:34:45.914Z,18.91
2023-05-02T17:37:12.648Z,18.69
2023-05-02T17:39:39.151Z,18.72
2023-05-02T17:42:05.772Z,18.75
2023-05-02T17:44:35.873Z,18.76
2023-05-02T17:47:03.507Z,18.74
2023-05-02T17:49:30.080Z,18.61
2023-05-02T17:51:56.897Z,18.61
2023-05-02T17:54:23.402Z,18.68
2023-05-02T17:56:50.669Z,18.55
2023-05-02T17:59:19.369Z,18.47
2023-05-02T18:01:45.883Z,18.43
2023-05-02T18:04:14.131Z,18.28
2023-05-02T18:06:40.924Z,18.21
2023-05-02T18:09:07.418Z,17.99
2023-05-02T18:11:33.913Z,17.98
2023-05-02T18:14:03.693Z,17.74
2023-05-02T18:16:31.880Z,17.74
2023-05-02T18:18:58.455Z,17.81
2023-05-02T18:21:25.844Z,17.68
2023-05-02T18:23:52.343Z,17.59
2023-05-02T18:26:22.082Z,17.48
2023-05-02T18:28:53.211Z,17.35
2023-05-02T18:31:22.230Z,17.22
2023-05-02T18:33:53.503Z,16.99
2023-05-02T18:36:28.370Z,17.03
2023-05-02T18:38:57.788Z,16.90
2023-05-02T18:41:24.346Z,16.80
2023-05-02T18:43:50.999Z,16.74
2023-05-02T18:46:19.792Z,16.63
2023-05-02T18:48:46.415Z,16.64
2023-05-02T18:51:13.392Z,16.59
2023-05-02T18:53:39.871Z,16.47
2023-05-02T18:56:13.396Z,16.49
2023-05-02T18:58:40.879Z,16.13
2023-05-02T19:01:15.243Z,16.00
2023-05-02T19:03:43.612Z,15.86
2023-05-02T19:06:10.853Z,15.86
2023-05-02T19:08:37.427Z,15.67
2023-05-02T19:11:04.308Z,15.42
2023-05-02T19:13:31.240Z,15.26
2023-05-02T19:15:58.090Z,15.09
2023-05-02T19:18:24.639Z,15.04
2023-05-02T19:20:53.788Z,15.06
2023-05-02T19:23:23.148Z,14.96
2023-05-02T19:25:53.952Z,14.98
2023-05-02T19:28:23.502Z,14.95
2023-05-02T19:30:54.869Z,14.91
2023-05-02T19:33:24.450Z,14.85
2023-05-02T19:35:54.291Z,14.63
2023-05-02T19:38:24.867Z,14.90
2023-05-02T19:40:51.651Z,14.86
2023-05-02T19:43:18.178Z,14.64
2023-05-02T19:45:44.860Z,14.62
2023-05-02T19:48:12.796Z,14.63
2023-05-02T19:50:42.767Z,14.50
2023-05-02T19:53:09.262Z,14.59
2023-05-02T19:55:35.883Z,14.61
2023-05-02T19:58:04.246Z,14.57
2023-05-02T20:00:30.979Z,14.55
2023-05-02T20:02:57.671Z,14.46
2023-05-02T20:05:29.790Z,14.36
2023-05-02T20:07:56.314Z,14.37
2023-05-02T20:10:23.029Z,14.30
2023-05-02T20:12:52.725Z,14.33
2023-05-02T20:15:21.365Z,14.38
2023-05-02T20:17:47.941Z,14.41
2023-05-02T20:20:14.567Z,14.44
2023-05-02T20:22:41.366Z,14.40
2023-05-02T20:25:10.340Z,14.35
2023-05-02T20:27:36.825Z,14.34
2023-05-02T20:30:03.697Z,14.33
2023-05-02T20:32:30.701Z,14.26
2023-05-02T20:34:57.689Z,14.19
2023-05-02T20:37:25.545Z,14.19
2023-05-02T20:39:52.812Z,14.17
2023-05-02T20:42:23.379Z,14.16
2023-05-02T20:45:08.792Z,14.04
2023-05-02T20:47:35.341Z,13.96
2023-05-02T20:50:02.078Z,14.01
2023-05-02T20:52:28.995Z,13.99
2023-05-02T20:54:56.308Z,13.94
2023-05-02T20:57:26.464Z,13.63
2023-05-02T20:59:59.520Z,13.78
2023-05-02T21:02:27.418Z,13.78
2023-05-02T21:04:55.099Z,13.67
2023-05-02T21:07:25.752Z,13.61
2023-05-02T21:09:55.919Z,13.66
2023-05-02T21:12:24.181Z,13.64
2023-05-02T21:14:50.774Z,13.67
2023-05-02T21:17:17.509Z,13.63
2023-05-02T21:19:43.995Z,13.53
2023-05-02T21:22:10.527Z,13.62
2023-05-02T21:24:36.985Z,13.59
2023-05-02T21:27:03.727Z,13.49
2023-05-02T21:29:30.231Z,13.45
2023-05-02T21:31:56.707Z,13.46
2023-05-02T21:34:24.934Z,13.38
2023-05-02T21:36:51.411Z,13.35
2023-05-02T21:39:18.231Z,13.25
2023-05-02T21:41:44.660Z,13.22
2023-05-02T21:44:11.613Z,13.15
2023-05-02T21:46:38.055Z,13.13
2023-05-02T21:49:04.553Z,12.96
2023-05-02T21:51:31.625Z,13.00
2023-05-02T21:53:58.028Z,12.94
2023-05-02T21:56:27.636Z,12.89
2023-05-02T21:58:56.365Z,12.93
2023-05-02T22:01:22.928Z,12.89
2023-05-02T22:03:49.450Z,12.81
2023-05-02T22:06:16.749Z,12.78
2023-05-02T22:08:43.926Z,12.76
2023-05-02T22:11:10.400Z,12.68
2023-05-02T22:13:37.269Z,12.70
2023-05-02T22:16:03.892Z,12.66
2023-05-02T22:18:30.368Z,12.62
2023-05-02T22:21:01.552Z,12.50
2023-05-02T22:23:28.068Z,12.49
2023-05-02T22:25:54.495Z,12.56
2023-05-02T22:28:21.047Z,12.47
2023-05-02T22:30:47.559Z,12.45
2023-05-02T22:33:14.314Z,12.43
2023-05-02T22:35:40.997Z,12.35
2023-05-02T22:38:10.891Z,12.36
2023-05-02T22:40:37.374Z,12.34
2023-05-02T22:43:03.915Z,12.34
2023-05-02T22:45:30.504Z,12.28
2023-05-02T22:48:00.682Z,12.31
2023-05-02T22:50:31.321Z,12.22
2023-05-02T22:53:03.759Z,12.25
2023-05-02T22:55:30.627Z,12.22
2023-05-02T22:57:59.469Z,12.24
2023-05-02T23:00:26.024Z,12.22
2023-05-02T23:02:52.588Z,12.12
2023-05-02T23:05:19.498Z,12.02
2023-05-02T23:07:45.956Z,11.96
2023-05-02T23:10:12.433Z,11.83
2023-05-02T23:12:39.162Z,11.72
2023-05-02T23:15:06.857Z,11.68
2023-05-02T23:17:33.469Z,11.63
2023-05-02T23:20:03.366Z,11.67
2023-05-02T23:22:31.335Z,11.60
2023-05-02T23:24:57.788Z,11.43
2023-05-02T23:27:24.212Z,11.44
2023-05-02T23:29:50.681Z,11.25
2023-05-02T23:32:17.313Z,11.05
2023-05-02T23:34:44.408Z,10.98
2023-05-02T23:37:12.734Z,10.86
2023-05-02T23:39:39.326Z,10.76
2023-05-02T23:42:06.464Z,10.72
2023-05-02T23:44:33.281Z,10.81
2023-05-02T23:47:00.704Z,10.74
2023-05-02T23:49:27.778Z,10.72
2023-05-02T23:51:54.375Z,10.74
2023-05-02T23:54:20.796Z,10.77
2023-05-02T23:56:47.251Z,10.79
2023-05-02T23:59:13.705Z,10.71
